createdAt,value
2023-05-05T00:00:36.264Z,15.3
2023-05-05T00:01:53.131Z,15.3
2023-05-05T00:03:10.177Z,15.3
2023-05-05T00:04:27.131Z,15.3
2023-05-05T00:05:44.111Z,15.3
2023-05-05T00:07:01.120Z,15.3
2023-05-05T00:08:18.098Z,15.3
2023-05-05T00:09:35.136Z,15.3
2023-05-05T00:10:52.117Z,15.3
2023-05-05T00:12:09.136Z,15.3
2023-05-05T00:13:26.120Z,15.3
2023-05-05T00:14:43.140Z,15.3
2023-05-05T00:16:00.160Z,15.3
2023-05-05T00:17:17.178Z,15.2
2023-05-05T00:18:34.127Z,15.1
2023-05-05T00:19:51.157Z,15.1
2023-05-05T00:21:08.143Z,15.1
2023-05-05T00:22:25.126Z,15.1
2023-05-05T00:23:42.136Z,15.1
2023-05-05T00:24:59.154Z,15.1
2023-05-05T00:26:16.131Z,15.2
2023-05-05T00:27:33.139Z,15.2
2023-05-05T00:28:50.139Z,15.3
2023-05-05T00:30:07.301Z,15.2
2023-05-05T00:31:24.170Z,15
2023-05-05T00:32:41.243Z,14.9
2023-05-05T00:33:58.156Z,14.7
2023-05-05T00:35:15.184Z,14.6
2023-05-05T00:36:32.220Z,14.5
2023-05-05T00:37:49.163Z,14.4
2023-05-05T00:39:06.160Z,14.3
2023-05-05T00:40:23.156Z,14.3
2023-05-05T00:41:40.222Z,14.3
2023-05-05T00:42:57.164Z,14.3
2023-05-05T00:44:14.166Z,14.5
2023-05-05T00:45:31.164Z,14.6
2023-05-05T00:46:48.274Z,14.7
2023-05-05T00:48:05.248Z,14.8
2023-05-05T00:49:22.185Z,14.8
2023-05-05T00:50:39.200Z,14.9
2023-05-05T00:51:56.831Z,15
2023-05-05T00:53:13.174Z,15
2023-05-05T00:54:30.241Z,15.1
2023-05-05T00:55:47.191Z,15
2023-05-05T00:57:04.256Z,15
2023-05-05T00:58:21.188Z,15
2023-05-05T00:59:38.227Z,15
2023-05-05T01:00:55.188Z,15
2023-05-05T01:02:12.433Z,15
2023-05-05T01:03:29.254Z,15
2023-05-05T01:04:46.249Z,15.1
2023-05-05T01:06:03.197Z,15.1
2023-05-05T01:07:20.205Z,15
2023-05-05T01:08:37.207Z,15
2023-05-05T01:10:04.402Z,14.9
2023-05-05T01:11:11.207Z,15
2023-05-05T01:12:28.259Z,15
2023-05-05T01:13:45.215Z,14.9
2023-05-05T01:15:02.329Z,15
2023-05-05T01:16:19.230Z,14.9
2023-05-05T01:17:36.321Z,15
2023-05-05T01:18:53.223Z,15
2023-05-05T01:20:10.371Z,15
2023-05-05T01:21:27.232Z,15.1
2023-05-05T01:22:44.269Z,15.1
2023-05-05T01:24:01.243Z,15.1
2023-05-05T01:25:18.219Z,15.1
2023-05-05T01:26:35.220Z,15
2023-05-05T01:27:52.290Z,14.8
2023-05-05T01:29:09.281Z,14.6
2023-05-05T01:30:26.238Z,14.6
2023-05-05T01:31:43.299Z,14.5
2023-05-05T01:33:00.398Z,14.4
2023-05-05T01:34:17.332Z,14.3
2023-05-05T01:35:34.229Z,14.2
2023-05-05T01:36:51.238Z,14.1
2023-05-05T01:38:08.285Z,14.1
2023-05-05T01:39:25.266Z,14.1
2023-05-05T01:40:42.252Z,14.2
2023-05-05T01:41:59.261Z,14.2
2023-05-05T01:43:16.262Z,14.3
2023-05-05T01:44:33.281Z,14.4
2023-05-05T01:45:50.342Z,14.5
2023-05-05T01:47:07.289Z,14.6
2023-05-05T01:48:24.300Z,14.8
2023-05-05T01:49:41.256Z,14.8
2023-05-05T01:50:58.356Z,14.8
2023-05-05T01:52:15.253Z,14.9
2023-05-05T01:53:32.253Z,14.9
2023-05-05T01:54:49.269Z,14.9
2023-05-05T01:56:06.340Z,14.9
2023-05-05T01:57:23.266Z,15
2023-05-05T01:58:40.277Z,15
2023-05-05T01:59:57.275Z,15
2023-05-05T02:01:14.326Z,15
2023-05-05T02:02:31.463Z,15
2023-05-05T02:03:48.308Z,15
2023-05-05T02:05:05.300Z,15
2023-05-05T02:06:22.864Z,15
2023-05-05T02:07:39.280Z,15
2023-05-05T02:08:56.296Z,14.9
2023-05-05T02:10:13.280Z,14.9
2023-05-05T02:11:30.342Z,14.9
2023-05-05T02:12:47.321Z,14.9
2023-05-05T02:14:04.338Z,14.9
2023-05-05T02:15:21.308Z,14.9
2023-05-05T02:16:38.366Z,14.8
2023-05-05T02:17:55.313Z,14.9
2023-05-05T02:19:12.354Z,14.8
2023-05-05T02:20:29.338Z,14.7
2023-05-05T02:21:46.536Z,14.5
2023-05-05T02:23:03.398Z,14.4
2023-05-05T02:24:20.359Z,14.2
2023-05-05T02:25:37.327Z,14
2023-05-05T02:26:54.348Z,13.9
2023-05-05T02:28:11.352Z,13.7
2023-05-05T02:29:28.353Z,13.6
2023-05-05T02:30:45.363Z,13.5
2023-05-05T02:32:02.384Z,13.5
2023-05-05T02:33:19.324Z,13.4
2023-05-05T02:34:36.412Z,13.6
2023-05-05T02:35:53.382Z,13.7
2023-05-05T02:37:10.350Z,13.8
2023-05-05T02:38:27.338Z,14
2023-05-05T02:39:44.367Z,14.1
2023-05-05T02:41:01.346Z,14.3
2023-05-05T02:42:18.353Z,14.3
2023-05-05T02:43:35.391Z,14.4
2023-05-05T02:44:52.390Z,14.4
2023-05-05T02:46:09.400Z,14.4
2023-05-05T02:47:26.384Z,14.4
2023-05-05T02:48:43.341Z,14.5
2023-05-05T02:50:00.401Z,14.5
2023-05-05T02:51:17.388Z,14.5
2023-05-05T02:52:34.345Z,14.5
2023-05-05T02:53:51.356Z,14.5
2023-05-05T02:55:08.385Z,14.6
2023-05-05T02:56:25.381Z,14.6
2023-05-05T02:57:42.358Z,14.6
2023-05-05T02:58:59.354Z,14.6
2023-05-05T03:00:16.382Z,14.6
2023-05-05T03:01:33.435Z,14.5
2023-05-05T03:02:50.496Z,14.5
2023-05-05T03:04:07.392Z,14.5
2023-05-05T03:05:24.400Z,14.5
2023-05-05T03:06:41.453Z,14.5
2023-05-05T03:07:58.382Z,14.4
2023-05-05T03:09:15.373Z,14.5
2023-05-05T03:10:32.390Z,14.4
2023-05-05T03:11:49.448Z,14.4
2023-05-05T03:13:06.444Z,14.4
2023-05-05T03:14:23.383Z,14.4
2023-05-05T03:15:40.384Z,14.4
2023-05-05T03:16:57.412Z,14.4
2023-05-05T03:18:14.385Z,14.4
2023-05-05T03:19:31.386Z,14.4
2023-05-05T03:20:48.416Z,14.4
2023-05-05T03:22:05.437Z,14.5
2023-05-05T03:23:22.393Z,14.5
2023-05-05T03:24:39.392Z,14.5
2023-05-05T03:25:57.027Z,14.6
2023-05-05T03:27:14.472Z,14.5
2023-05-05T03:28:31.408Z,14.5
2023-05-05T03:29:48.402Z,14.5
2023-05-05T03:31:05.450Z,14.4
2023-05-05T03:32:22.432Z,14.2
2023-05-05T03:33:39.408Z,14.1
2023-05-05T03:34:56.439Z,14
2023-05-05T03:36:13.439Z,13.9
2023-05-05T03:37:30.493Z,13.8
2023-05-05T03:38:47.421Z,13.7
2023-05-05T03:40:04.460Z,13.7
2023-05-05T03:41:21.417Z,13.7
2023-05-05T03:42:38.421Z,13.6
2023-05-05T03:43:55.433Z,13.5
2023-05-05T03:45:12.447Z,13.5
2023-05-05T03:46:29.424Z,13.5
2023-05-05T03:47:46.466Z,13.6
2023-05-05T03:49:03.470Z,13.6
2023-05-05T03:50:20.471Z,13.7
2023-05-05T03:51:37.462Z,13.9
2023-05-05T03:52:54.434Z,14.1
2023-05-05T03:54:11.440Z,14.2
2023-05-05T03:55:28.469Z,14.4
2023-05-05T03:56:45.451Z,14.4
2023-05-05T03:58:02.498Z,14.5
2023-05-05T03:59:19.456Z,14.5
2023-05-05T04:00:36.450Z,14.4
2023-05-05T04:01:53.516Z,14.2
2023-05-05T04:03:10.663Z,14.1
2023-05-05T04:04:27.541Z,14
2023-05-05T04:05:44.470Z,13.9
2023-05-05T04:07:01.986Z,13.8
2023-05-05T04:08:18.457Z,13.8
2023-05-05T04:09:35.470Z,13.7
2023-05-05T04:10:52.525Z,13.8
2023-05-05T04:12:09.493Z,13.8
2023-05-05T04:13:26.460Z,13.8
2023-05-05T04:14:43.538Z,13.8
2023-05-05T04:16:00.511Z,13.9
2023-05-05T04:17:17.534Z,14
2023-05-05T04:18:34.488Z,14.1
2023-05-05T04:19:51.489Z,14.2
2023-05-05T04:21:08.527Z,14.3
2023-05-05T04:22:25.566Z,14.4
2023-05-05T04:23:42.488Z,14.4
2023-05-05T04:24:59.479Z,14.5
2023-05-05T04:26:16.504Z,14.6
2023-05-05T04:27:33.519Z,14.5
2023-05-05T04:28:50.501Z,14.4
2023-05-05T04:30:07.654Z,14.5
2023-05-05T04:31:24.556Z,14.5
2023-05-05T04:32:41.569Z,14.6
2023-05-05T04:33:58.542Z,14.6
2023-05-05T04:35:15.582Z,14.7
2023-05-05T04:36:32.505Z,14.8
2023-05-05T04:37:49.581Z,14.9
2023-05-05T04:39:06.551Z,14.9
2023-05-05T04:40:23.526Z,15
2023-05-05T04:41:40.521Z,15
2023-05-05T04:42:57.577Z,15.1
2023-05-05T04:44:14.546Z,15.2
2023-05-05T04:45:31.551Z,15.2
2023-05-05T04:46:48.630Z,15.3
2023-05-05T04:48:05.668Z,15.4
2023-05-05T04:49:22.521Z,15.4
2023-05-05T04:50:39.533Z,15.2
2023-05-05T04:51:56.541Z,15.1
2023-05-05T04:53:13.677Z,15.1
2023-05-05T04:54:30.560Z,15.1
2023-05-05T04:55:47.535Z,15
2023-05-05T04:57:04.536Z,14.8
2023-05-05T04:58:21.564Z,14.8
2023-05-05T04:59:38.556Z,14.8
2023-05-05T05:00:56.223Z,14.9
2023-05-05T05:02:13.592Z,14.9
2023-05-05T05:03:30.632Z,15
2023-05-05T05:04:47.553Z,15.1
2023-05-05T05:06:04.590Z,15.2
2023-05-05T05:07:21.583Z,15.2
2023-05-05T05:08:38.573Z,15.2
2023-05-05T05:09:55.556Z,15.2
2023-05-05T05:11:12.580Z,15.2
2023-05-05T05:12:29.550Z,15.2
2023-05-05T05:13:46.573Z,15.3
2023-05-05T05:15:03.626Z,15.3
2023-05-05T05:16:20.689Z,15.2
2023-05-05T05:17:37.570Z,15.2
2023-05-05T05:18:54.851Z,15.1
2023-05-05T05:20:11.702Z,15.1
2023-05-05T05:21:28.588Z,15.2
2023-05-05T05:22:45.618Z,15.1
2023-05-05T05:24:02.626Z,15
2023-05-05T05:25:19.580Z,15.1
2023-05-05T05:26:36.584Z,15.4
2023-05-05T05:28:06.026Z,15.5
2023-05-05T05:29:10.634Z,15.6
2023-05-05T05:30:27.613Z,15.8
2023-05-05T05:31:44.645Z,16
2023-05-05T05:33:01.664Z,16.1
2023-05-05T05:34:18.590Z,16.1
2023-05-05T05:35:35.606Z,16.1
2023-05-05T05:36:52.623Z,16
2023-05-05T05:38:09.592Z,15.8
2023-05-05T05:39:26.615Z,15.9
2023-05-05T05:40:43.600Z,16
2023-05-05T05:42:00.627Z,16.1
2023-05-05T05:43:17.598Z,16.1
2023-05-05T05:44:34.595Z,16.1
2023-05-05T05:45:51.655Z,16.2
2023-05-05T05:47:08.636Z,16.1
2023-05-05T05:48:25.618Z,16.1
2023-05-05T05:49:42.689Z,16.1
2023-05-05T05:50:59.622Z,16
2023-05-05T05:52:16.610Z,16
2023-05-05T05:53:33.619Z,16.1
2023-05-05T05:54:50.668Z,16.3
2023-05-05T05:56:07.621Z,16.4
2023-05-05T05:57:24.638Z,16.5
2023-05-05T05:58:41.615Z,16.6
2023-05-05T06:00:00.454Z,16.6
2023-05-05T06:01:15.647Z,16.8
2023-05-05T06:02:32.728Z,16.9
2023-05-05T06:03:49.696Z,17
2023-05-05T06:05:06.637Z,17.3
2023-05-05T06:06:23.707Z,17.5
2023-05-05T06:07:40.643Z,17.7
2023-05-05T06:08:57.656Z,18
2023-05-05T06:10:26.306Z,18.2
2023-05-05T06:11:31.676Z,18.4
2023-05-05T06:12:48.670Z,18.7
2023-05-05T06:14:05.660Z,18.8
2023-05-05T06:15:22.708Z,18.9
2023-05-05T06:16:39.684Z,19.2
2023-05-05T06:17:56.700Z,19.3
2023-05-05T06:19:13.983Z,19.7
2023-05-05T06:20:31.676Z,20.1
2023-05-05T06:21:49.218Z,20.5
2023-05-05T06:23:05.735Z,20.4
2023-05-05T06:24:22.734Z,20.5
2023-05-05T06:25:39.685Z,20.6
2023-05-05T06:26:56.657Z,21
2023-05-05T06:28:13.655Z,21.7
2023-05-05T06:29:31.442Z,22.5
2023-05-05T06:30:48.676Z,22.5
2023-05-05T06:32:05.712Z,22.1
2023-05-05T06:33:22.662Z,21.6
2023-05-05T06:34:40.344Z,21.4
2023-05-05T06:35:57.694Z,21.4
2023-05-05T06:37:14.680Z,21.3
2023-05-05T06:38:31.711Z,21.3
2023-05-05T06:39:48.673Z,21.4
2023-05-05T06:41:05.882Z,21.5
2023-05-05T06:42:22.681Z,21.5
2023-05-05T06:43:39.699Z,21.4
2023-05-05T06:44:56.693Z,21.3
2023-05-05T06:46:13.733Z,21
2023-05-05T06:47:30.698Z,20.8
2023-05-05T06:48:47.699Z,20.7
2023-05-05T06:50:04.725Z,20.9
2023-05-05T06:51:21.782Z,21.1
2023-05-05T06:52:38.699Z,21.3
2023-05-05T06:53:55.704Z,21.5
2023-05-05T06:55:12.705Z,22
2023-05-05T06:56:29.796Z,22.4
2023-05-05T06:57:46.712Z,22.6
2023-05-05T06:59:03.723Z,22.8
2023-05-05T07:00:20.737Z,22.8
2023-05-05T07:01:37.776Z,22.7
2023-05-05T07:02:54.731Z,22.7
2023-05-05T07:04:11.755Z,23.1
2023-05-05T07:05:28.737Z,23.2
2023-05-05T07:06:45.759Z,23.3
2023-05-05T07:08:02.759Z,23.6
2023-05-05T07:09:19.733Z,23.8
2023-05-05T07:10:37.502Z,24.3
2023-05-05T07:11:54.885Z,24.6
2023-05-05T07:13:11.859Z,24.4
2023-05-05T07:14:28.767Z,24.3
2023-05-05T07:15:45.807Z,24.3
2023-05-05T07:17:02.769Z,24.2
2023-05-05T07:18:19.798Z,24.5
2023-05-05T07:19:36.759Z,24.5
2023-05-05T07:20:53.762Z,24.2
2023-05-05T07:22:10.760Z,24.2
2023-05-05T07:23:27.803Z,23.9
2023-05-05T07:24:44.792Z,23.4
2023-05-05T07:26:01.792Z,23.1
2023-05-05T07:27:18.985Z,23.3
2023-05-05T07:28:35.786Z,23.6
2023-05-05T07:29:52.780Z,24.2
2023-05-05T07:31:09.794Z,24.6
2023-05-05T07:32:26.806Z,25.2
2023-05-05T07:33:43.765Z,25.4
2023-05-05T07:35:00.766Z,25.4
2023-05-05T07:36:17.894Z,25
2023-05-05T07:37:34.795Z,24.7
2023-05-05T07:38:51.775Z,24.5
2023-05-05T07:40:09.122Z,24.5
2023-05-05T07:41:25.898Z,24.7
2023-05-05T07:42:43.039Z,24.3
2023-05-05T07:43:59.837Z,23.9
2023-05-05T07:45:16.836Z,23.6
2023-05-05T07:46:33.955Z,23.3
2023-05-05T07:47:50.861Z,23.4
2023-05-05T07:49:07.984Z,23.6
2023-05-05T07:50:24.795Z,23.9
2023-05-05T07:51:41.858Z,23.9
2023-05-05T07:53:10.468Z,23.7
2023-05-05T07:54:15.857Z,23.9
2023-05-05T07:55:32.843Z,24.5
2023-05-05T07:56:49.805Z,24.9
2023-05-05T07:58:06.921Z,25.2
2023-05-05T07:59:24.170Z,25.2
2023-05-05T08:00:40.948Z,25.3
2023-05-05T08:01:57.838Z,25.8
2023-05-05T08:03:14.879Z,26
2023-05-05T08:04:31.981Z,25.9
2023-05-05T08:05:50.603Z,25.9
2023-05-05T08:07:05.844Z,25.9
2023-05-05T08:08:22.870Z,25.7
2023-05-05T08:09:39.904Z,25.9
2023-05-05T08:10:56.849Z,26.2
2023-05-05T08:12:13.863Z,26.3
2023-05-05T08:13:31.045Z,26.1
2023-05-05T08:14:47.871Z,25.9
2023-05-05T08:16:05.031Z,25.9
2023-05-05T08:17:21.861Z,26
2023-05-05T08:18:38.915Z,26.1
2023-05-05T08:19:55.866Z,26
2023-05-05T08:21:13.106Z,25.5
2023-05-05T08:22:29.852Z,25.3
2023-05-05T08:23:46.891Z,25.3
2023-05-05T08:25:03.877Z,25.1
2023-05-05T08:26:20.930Z,25.2
2023-05-05T08:27:37.957Z,25.2
2023-05-05T08:28:54.978Z,25.3
2023-05-05T08:30:11.969Z,25.2
2023-05-05T08:31:29.116Z,25
2023-05-05T08:32:45.917Z,24.9
2023-05-05T08:34:02.915Z,24.7
2023-05-05T08:35:19.885Z,24.7
2023-05-05T08:36:36.915Z,25
2023-05-05T08:37:54.100Z,25.1
2023-05-05T08:39:10.913Z,25.2
2023-05-05T08:40:27.896Z,25.3
2023-05-05T08:41:45.177Z,25.2
2023-05-05T08:43:02.933Z,25.1
2023-05-05T08:44:20.320Z,25.2
2023-05-05T08:45:36.928Z,25.2
2023-05-05T08:46:53.946Z,25.2
2023-05-05T08:48:11.091Z,25.1
2023-05-05T08:49:28.146Z,25.1
2023-05-05T08:50:45.115Z,25.1
2023-05-05T08:52:01.909Z,25.1
2023-05-05T08:53:18.917Z,25
2023-05-05T08:54:35.967Z,24.8
2023-05-05T08:55:52.990Z,24.9
2023-05-05T08:57:10.018Z,24.9
2023-05-05T08:58:28.897Z,24.9
2023-05-05T08:59:44.061Z,25.1
2023-05-05T09:01:00.939Z,25.1
2023-05-05T09:02:17.942Z,25.3
2023-05-05T09:03:35.081Z,25.3
2023-05-05T09:04:51.939Z,25.2
2023-05-05T09:06:08.925Z,25.3
2023-05-05T09:07:25.929Z,25.4
2023-05-05T09:08:42.955Z,25.7
2023-05-05T09:09:59.950Z,26.2
2023-05-05T09:11:16.929Z,26.6
2023-05-05T09:12:33.946Z,26.8
2023-05-05T09:15:37.563Z,27
2023-05-05T09:16:53.994Z,26.7
2023-05-05T09:18:11.119Z,26.7
2023-05-05T09:19:28.011Z,26.6
2023-05-05T09:20:44.965Z,26.5
2023-05-05T09:22:01.963Z,26.2
2023-05-05T09:23:18.950Z,26.3
2023-05-05T09:24:35.999Z,26.7
2023-05-05T09:25:52.985Z,26.6
2023-05-05T09:27:10.128Z,26.3
2023-05-05T09:28:26.972Z,26.3
2023-05-05T09:29:43.993Z,26.4
2023-05-05T09:31:01.274Z,26.3
2023-05-05T09:32:17.982Z,26.3
2023-05-05T09:33:34.971Z,26.2
2023-05-05T09:34:51.991Z,26.3
2023-05-05T09:36:09.025Z,26.5
2023-05-05T09:37:25.981Z,26.5
2023-05-05T09:38:42.983Z,26.3
2023-05-05T09:39:59.975Z,26.1
2023-05-05T09:41:17.011Z,26
2023-05-05T09:42:33.987Z,26.4
2023-05-05T09:43:50.986Z,26.5
2023-05-05T09:45:08.099Z,26.6
2023-05-05T09:46:25.330Z,26.5
2023-05-05T09:47:42.139Z,26.7
2023-05-05T09:48:59.033Z,26.8
2023-05-05T09:50:16.210Z,27.2
2023-05-05T09:51:33.002Z,27.8
2023-05-05T09:52:50.013Z,28.2
2023-05-05T09:54:07.028Z,28.3
2023-05-05T09:55:24.031Z,28.1
2023-05-05T09:56:41.081Z,27.9
2023-05-05T09:57:58.017Z,27.5
2023-05-05T09:59:15.019Z,27.1
2023-05-05T10:00:32.043Z,26.8
2023-05-05T10:01:49.235Z,26.6
2023-05-05T10:03:06.050Z,26.6
2023-05-05T10:04:23.109Z,26.9
2023-05-05T10:05:40.050Z,26.9
2023-05-05T10:06:57.024Z,26.8
2023-05-05T10:08:14.053Z,26.6
2023-05-05T10:09:31.044Z,26.4
2023-05-05T10:10:48.082Z,26
2023-05-05T10:12:05.049Z,26.2
2023-05-05T10:13:22.026Z,26.3
2023-05-05T10:14:39.043Z,26.3
2023-05-05T10:15:57.052Z,26.6
2023-05-05T10:17:14.174Z,27.3
2023-05-05T10:18:31.093Z,27.9
2023-05-05T10:19:48.057Z,28.4
2023-05-05T10:21:05.097Z,28.6
2023-05-05T10:22:22.092Z,28.6
2023-05-05T10:23:39.049Z,28.2
2023-05-05T10:24:56.072Z,27.8
2023-05-05T10:26:13.110Z,27.6
2023-05-05T10:27:30.104Z,27.5
2023-05-05T10:28:47.116Z,27.6
2023-05-05T10:30:04.153Z,27.3
2023-05-05T10:31:25.608Z,27.2
2023-05-05T10:32:51.897Z,27.2
2023-05-05T10:33:55.181Z,27.5
2023-05-05T10:35:12.085Z,27.5
2023-05-05T10:36:29.157Z,27.6
2023-05-05T10:37:46.077Z,27.7
2023-05-05T10:39:03.141Z,27.9
2023-05-05T10:40:20.096Z,28
2023-05-05T10:41:37.232Z,28.3
2023-05-05T10:42:54.095Z,28.7
2023-05-05T10:44:11.132Z,29
2023-05-05T10:45:28.171Z,28.8
2023-05-05T10:46:45.193Z,28.4
2023-05-05T10:48:02.300Z,28
2023-05-05T10:49:19.103Z,27.6
2023-05-05T10:50:36.151Z,27.7
2023-05-05T10:51:53.158Z,28.2
2023-05-05T10:53:10.217Z,28.4
2023-05-05T10:54:27.117Z,28.4
2023-05-05T10:55:44.150Z,27.9
2023-05-05T10:57:01.155Z,27.7
2023-05-05T10:58:18.112Z,27.6
2023-05-05T10:59:35.156Z,27.7
2023-05-05T11:00:52.168Z,28.1
2023-05-05T11:02:09.198Z,28.6
2023-05-05T11:03:26.341Z,28.6
2023-05-05T11:04:43.155Z,28.7
2023-05-05T11:06:00.142Z,28.7
2023-05-05T11:07:17.224Z,28.6
2023-05-05T11:08:34.150Z,28.4
2023-05-05T11:09:51.128Z,28.5
2023-05-05T11:11:08.160Z,28.8
2023-05-05T11:12:25.205Z,28.9
2023-05-05T11:13:42.184Z,29.1
2023-05-05T11:14:59.150Z,29.4
2023-05-05T11:16:16.186Z,29.9
2023-05-05T11:17:33.210Z,30.2
2023-05-05T11:18:50.269Z,30.3
2023-05-05T11:20:07.334Z,30.7
2023-05-05T11:21:24.185Z,30.7
2023-05-05T11:22:41.194Z,30.6
2023-05-05T11:23:58.267Z,30.7
2023-05-05T11:25:15.174Z,30.6
2023-05-05T11:26:32.163Z,30.8
2023-05-05T11:27:49.170Z,31
2023-05-05T11:29:06.218Z,31.1
2023-05-05T11:30:22.585Z,31.3
2023-05-05T11:31:38.652Z,31.7
2023-05-05T11:32:54.568Z,32.1
2023-05-05T11:34:10.765Z,32.4
2023-05-05T11:35:27.188Z,32.7
2023-05-05T11:36:44.188Z,33
2023-05-05T11:38:01.185Z,32.6
2023-05-05T11:39:17.630Z,32.6
2023-05-05T11:40:34.248Z,32.8
2023-05-05T11:41:51.205Z,33.2
2023-05-05T11:43:08.200Z,32.8
2023-05-05T11:44:24.601Z,32.5
2023-05-05T11:45:41.213Z,32.6
2023-05-05T11:47:01.024Z,32.6
2023-05-05T11:48:18.170Z,32.3
2023-05-05T11:49:35.464Z,32.1
2023-05-05T11:50:52.239Z,31.8
2023-05-05T11:52:09.225Z,31.1
2023-05-05T11:53:25.602Z,30.9
2023-05-05T11:54:41.691Z,30.9
2023-05-05T11:55:58.243Z,31.2
2023-05-05T11:57:14.590Z,31.7
2023-05-05T11:58:31.234Z,32
2023-05-05T11:59:49.402Z,32
2023-05-05T12:01:05.286Z,32
2023-05-05T12:02:22.250Z,31.7
2023-05-05T12:03:39.343Z,31.6
2023-05-05T12:04:56.346Z,31.6
2023-05-05T12:06:12.674Z,31.4
2023-05-05T12:07:28.638Z,31.5
2023-05-05T12:08:45.266Z,31.8
2023-05-05T12:10:02.279Z,32.1
2023-05-05T12:11:19.305Z,32.4
2023-05-05T12:12:36.337Z,32.3
2023-05-05T12:13:53.258Z,32.1
2023-05-05T12:15:10.315Z,32.1
2023-05-05T12:16:27.388Z,32.1
2023-05-05T12:17:44.368Z,32.2
2023-05-05T12:19:01.282Z,32.1
2023-05-05T12:20:18.524Z,31.9
2023-05-05T12:21:35.432Z,31.7
2023-05-05T12:22:52.317Z,31.4
2023-05-05T12:24:09.271Z,31.3
2023-05-05T12:25:26.289Z,31.4
2023-05-05T12:26:43.296Z,31.2
2023-05-05T12:28:00.274Z,31.1
2023-05-05T12:29:17.337Z,31.1
2023-05-05T12:30:34.322Z,31.2
2023-05-05T12:31:51.381Z,31.1
2023-05-05T12:33:08.362Z,30.8
2023-05-05T12:34:25.313Z,30.8
2023-05-05T12:35:42.408Z,30.7
2023-05-05T12:36:59.320Z,30.9
2023-05-05T12:38:16.297Z,31.2
2023-05-05T12:39:33.296Z,31.5
2023-05-05T12:40:49.715Z,31.7
2023-05-05T12:42:06.318Z,31.9
2023-05-05T12:43:23.312Z,32
2023-05-05T12:44:40.332Z,31.7
2023-05-05T12:45:57.331Z,31.6
2023-05-05T12:47:14.351Z,31.3
2023-05-05T12:48:31.312Z,31
2023-05-05T12:49:48.378Z,30.7
2023-05-05T12:51:05.425Z,30.9
2023-05-05T12:52:22.327Z,31.1
2023-05-05T12:53:38.695Z,31.4
2023-05-05T12:54:55.139Z,31.8
2023-05-05T12:56:10.713Z,32.3
2023-05-05T12:57:27.367Z,32.6
2023-05-05T12:58:44.331Z,32.9
2023-05-05T13:00:01.341Z,32.7
2023-05-05T13:01:18.404Z,32
2023-05-05T13:02:34.885Z,31.5
2023-05-05T13:03:50.719Z,31.5
2023-05-05T13:05:07.584Z,31.9
2023-05-05T13:06:24.520Z,32.2
2023-05-05T13:07:40.759Z,32.3
2023-05-05T13:08:56.734Z,32.5
2023-05-05T13:10:12.732Z,33
2023-05-05T13:11:28.737Z,33.3
2023-05-05T13:12:44.872Z,33.6
2023-05-05T13:14:00.736Z,34
2023-05-05T13:15:16.753Z,34.3
2023-05-05T13:16:32.755Z,34.5
2023-05-05T13:17:49.475Z,34.7
2023-05-05T13:19:06.020Z,34.6
2023-05-05T13:20:22.785Z,34.6
2023-05-05T13:21:39.483Z,34.7
2023-05-05T13:22:56.414Z,34.8
2023-05-05T13:25:29.385Z,34.6
2023-05-05T13:26:46.421Z,34.4
2023-05-05T13:28:03.456Z,34
2023-05-05T13:29:20.405Z,33.7
2023-05-05T13:30:37.463Z,33.4
2023-05-05T13:31:54.390Z,33.3
2023-05-05T13:33:11.440Z,33.4
2023-05-05T13:34:27.798Z,33.3
2023-05-05T13:35:44.409Z,33.3
2023-05-05T13:37:01.518Z,33.3
2023-05-05T13:38:18.470Z,33.3
2023-05-05T13:39:35.417Z,33.2
2023-05-05T13:40:52.425Z,32.5
2023-05-05T13:42:09.495Z,32.2
2023-05-05T13:43:26.468Z,31.5
2023-05-05T13:44:43.433Z,31.4
2023-05-05T13:46:08.889Z,31
2023-05-05T13:47:17.486Z,30.7
2023-05-05T13:48:34.449Z,30.1
2023-05-05T13:49:51.451Z,29.6
2023-05-05T13:51:08.501Z,29.4
2023-05-05T13:52:25.534Z,29
2023-05-05T13:53:42.509Z,28.6
2023-05-05T13:54:59.433Z,28.7
2023-05-05T13:56:16.461Z,28.9
2023-05-05T13:57:33.461Z,29.2
2023-05-05T13:58:50.554Z,29.9
2023-05-05T14:00:07.498Z,30.5
2023-05-05T14:01:24.588Z,31.1
2023-05-05T14:02:41.575Z,31.4
2023-05-05T14:03:58.490Z,31.6
2023-05-05T14:05:15.471Z,31.7
2023-05-05T14:06:32.571Z,31.8
2023-05-05T14:07:49.694Z,31.6
2023-05-05T14:09:06.665Z,31.5
2023-05-05T14:10:23.466Z,31.7
2023-05-05T14:11:40.481Z,31.9
2023-05-05T14:12:58.098Z,32.2
2023-05-05T14:14:14.499Z,32.4
2023-05-05T14:15:31.960Z,32.3
2023-05-05T14:16:50.117Z,31.9
2023-05-05T14:18:05.535Z,31.7
2023-05-05T14:19:22.526Z,31.7
2023-05-05T14:20:39.493Z,31.7
2023-05-05T14:21:56.507Z,31.6
2023-05-05T14:23:13.672Z,31.6
2023-05-05T14:24:30.534Z,31.6
2023-05-05T14:25:47.491Z,31.4
2023-05-05T14:27:04.567Z,31.2
2023-05-05T14:28:21.597Z,31.1
2023-05-05T14:29:38.497Z,31
2023-05-05T14:30:55.562Z,30.8
2023-05-05T14:32:12.594Z,30.6
2023-05-05T14:33:29.578Z,30
2023-05-05T14:34:48.332Z,29.2
2023-05-05T14:36:03.588Z,28.8
2023-05-05T14:37:20.517Z,28.7
2023-05-05T14:38:37.683Z,28.7
2023-05-05T14:39:54.525Z,28.9
2023-05-05T14:41:11.554Z,29.2
2023-05-05T14:42:28.751Z,29.4
2023-05-05T14:43:46.590Z,29.2
2023-05-05T14:45:03.568Z,28.9
2023-05-05T14:46:20.576Z,28.8
2023-05-05T14:47:37.537Z,28.8
2023-05-05T14:48:54.571Z,28.9
2023-05-05T14:50:11.561Z,29
2023-05-05T14:51:28.572Z,29.1
2023-05-05T14:52:45.541Z,29.3
2023-05-05T14:54:02.648Z,29.5
2023-05-05T14:55:19.574Z,29.7
2023-05-05T14:56:36.600Z,29.3
2023-05-05T14:57:53.564Z,28.7
2023-05-05T14:59:10.574Z,28.2
2023-05-05T15:00:27.582Z,28.1
2023-05-05T15:01:44.654Z,28.1
2023-05-05T15:03:01.634Z,28.4
2023-05-05T15:04:18.646Z,28.7
2023-05-05T15:05:35.584Z,29
2023-05-05T15:06:52.576Z,29.3
2023-05-05T15:08:09.594Z,29.7
2023-05-05T15:09:26.693Z,29.6
2023-05-05T15:10:43.631Z,29.4
2023-05-05T15:12:00.611Z,29.1
2023-05-05T15:13:17.651Z,28.9
2023-05-05T15:14:34.645Z,28.8
2023-05-05T15:15:51.670Z,28.7
2023-05-05T15:17:08.620Z,28.8
2023-05-05T15:18:25.586Z,28.9
2023-05-05T15:19:42.684Z,28.9
2023-05-05T15:20:59.595Z,29
2023-05-05T15:22:16.606Z,29
2023-05-05T15:23:33.766Z,28.7
2023-05-05T15:24:50.638Z,28.5
2023-05-05T15:26:07.682Z,28.4
2023-05-05T15:27:24.612Z,28.2
2023-05-05T15:28:41.621Z,27.9
2023-05-05T15:29:58.689Z,27.7
2023-05-05T15:31:15.704Z,27.5
2023-05-05T15:32:32.689Z,27.2
2023-05-05T15:33:49.646Z,27
2023-05-05T15:35:06.762Z,26.7
2023-05-05T15:36:23.653Z,26.5
2023-05-05T15:37:40.620Z,26.5
2023-05-05T15:38:57.632Z,26.4
2023-05-05T15:40:14.733Z,26.2
2023-05-05T15:41:31.703Z,26.1
2023-05-05T15:42:48.641Z,26.2
2023-05-05T15:44:05.634Z,26.2
2023-05-05T15:45:22.634Z,26.3
2023-05-05T15:46:39.764Z,26.4
2023-05-05T15:47:56.702Z,26.3
2023-05-05T15:49:13.639Z,26.2
2023-05-05T15:50:30.647Z,26.1
2023-05-05T15:51:47.735Z,26.2
2023-05-05T15:53:04.673Z,26.4
2023-05-05T15:54:21.708Z,26.7
2023-05-05T15:55:38.887Z,26.6
2023-05-05T15:56:56.287Z,26.3
2023-05-05T15:58:13.679Z,26.1
2023-05-05T15:59:30.657Z,26.1
2023-05-05T16:00:47.755Z,26.3
2023-05-05T16:02:04.674Z,26.4
2023-05-05T16:03:21.790Z,26.5
2023-05-05T16:04:38.697Z,26.5
2023-05-05T16:05:55.699Z,26.4
2023-05-05T16:07:12.700Z,26.5
2023-05-05T16:08:29.750Z,26.6
2023-05-05T16:09:46.677Z,26.7
2023-05-05T16:11:03.783Z,26.9
2023-05-05T16:12:20.681Z,27
2023-05-05T16:13:37.772Z,27.1
2023-05-05T16:14:54.726Z,27.1
2023-05-05T16:16:11.705Z,27.2
2023-05-05T16:17:29.434Z,27.1
2023-05-05T16:18:46.790Z,26.8
2023-05-05T16:20:03.735Z,26.5
2023-05-05T16:21:20.847Z,26.2
2023-05-05T16:22:37.735Z,26.1
2023-05-05T16:23:54.740Z,25.9
2023-05-05T16:25:11.786Z,25.9
2023-05-05T16:26:28.815Z,25.7
2023-05-05T16:27:45.733Z,25.8
2023-05-05T16:29:02.789Z,25.8
2023-05-05T16:30:19.747Z,25.9
2023-05-05T16:31:36.740Z,25.9
2023-05-05T16:32:53.766Z,25.9
2023-05-05T16:34:10.734Z,26
2023-05-05T16:35:27.720Z,26.1
2023-05-05T16:36:44.729Z,26.2
2023-05-05T16:38:01.779Z,26.2
2023-05-05T16:39:19.592Z,26
2023-05-05T16:40:36.964Z,25.8
2023-05-05T16:41:53.843Z,25.7
2023-05-05T16:43:10.800Z,25.6
2023-05-05T16:44:27.764Z,25.5
2023-05-05T16:45:44.764Z,25.5
2023-05-05T16:47:01.775Z,25.4
2023-05-05T16:48:18.768Z,25.5
2023-05-05T16:49:35.775Z,25.5
2023-05-05T16:50:52.777Z,25.6
2023-05-05T16:52:09.753Z,25.9
2023-05-05T16:53:26.762Z,26
2023-05-05T16:54:43.805Z,26
2023-05-05T16:56:00.767Z,25.9
2023-05-05T16:57:17.777Z,25.9
2023-05-05T16:58:34.761Z,25.9
2023-05-05T16:59:51.790Z,25.9
2023-05-05T17:01:08.783Z,25.8
2023-05-05T17:02:25.813Z,25.7
2023-05-05T17:03:42.779Z,25.6
2023-05-05T17:04:59.799Z,25.6
2023-05-05T17:06:16.819Z,25.6
2023-05-05T17:07:33.785Z,25.6
2023-05-05T17:08:50.796Z,25.5
2023-05-05T17:10:07.780Z,25.4
2023-05-05T17:11:24.798Z,25.3
2023-05-05T17:12:42.025Z,25.2
2023-05-05T17:13:58.787Z,25.2
2023-05-05T17:15:15.785Z,25.2